Seville, Georgia
Current Conditions -  °F | °C
As of 1:35 AM on Thursday 27 Nov 2014 (Local Time) from KCKF Reporting Station
Clear Clear  
Wind Chill: 46°   Ceiling: Unl
Heat Index: 49°   Visibility: 10mi
Dew Point: 36°   Wind: 7mph
Humidity: 61%   Direction: 250°WSW
Pressure: 30.14"   Gusts: NA
Location:  31.96°N, 83.6°W
Report Text: KCKF 270635Z AUTO 25006KT 10SM CLR 09/02 A3014 RMK AO2 T00930022
Loading
Personal Weather Stations






























Interactive Weather Map New forecast layout! Learn more

10-Day Weather Forecast

Advertisements
Track Severe Weather on mobile